sensor_id;sensor_type;location;lat;lon;timestamp;pressure;altitude;pressure_sealevel;temperature;humidity
15487;BME280;7845;53.698;10.078;2023-02-11T00:03:50;103026.47;;;7.39;100.00
15487;BME280;7845;53.698;10.078;2023-02-11T00:06:16;103019.56;;;7.39;100.00
15487;BME280;7845;53.698;10.078;2023-02-11T00:08:41;103029.28;;;7.43;100.00
15487;BME280;7845;53.698;10.078;2023-02-11T00:11:12;103024.72;;;7.38;100.00
15487;BME280;7845;53.698;10.078;2023-02-11T00:13:38;103030.75;;;7.38;100.00
15487;BME280;7845;53.698;10.078;2023-02-11T00:16:09;103036.84;;;7.39;100.00
15487;BME280;7845;53.698;10.078;2023-02-11T00:18:34;103037.09;;;7.45;100.00
15487;BME280;7845;53.698;10.078;2023-02-11T00:21:15;103035.97;;;7.38;100.00
15487;BME280;7845;53.698;10.078;2023-02-11T00:23:41;103034.25;;;7.39;100.00
15487;BME280;7845;53.698;10.078;2023-02-11T00:26:18;103046.47;;;7.41;100.00
15487;BME280;7845;53.698;10.078;2023-02-11T00:28:46;103058.56;;;7.41;100.00
15487;BME280;7845;53.698;10.078;2023-02-11T00:31:13;103061.13;;;7.39;100.00
15487;BME280;7845;53.698;10.078;2023-02-11T00:33:39;103064.50;;;7.37;100.00
15487;BME280;7845;53.698;10.078;2023-02-11T00:36:11;103055.13;;;7.40;100.00
15487;BME280;7845;53.698;10.078;2023-02-11T00:38:38;103059.56;;;7.43;100.00
15487;BME280;7845;53.698;10.078;2023-02-11T00:41:04;103052.66;;;7.43;100.00
15487;BME280;7845;53.698;10.078;2023-02-11T00:43:30;103058.34;;;7.35;100.00
15487;BME280;7845;53.698;10.078;2023-02-11T00:45:55;103064.53;;;7.38;100.00
15487;BME280;7845;53.698;10.078;2023-02-11T00:48:21;103063.97;;;7.45;100.00
15487;BME280;7845;53.698;10.078;2023-02-11T00:50:46;103065.69;;;7.45;100.00
15487;BME280;7845;53.698;10.078;2023-02-11T00:53:11;103067.38;;;7.44;100.00
15487;BME280;7845;53.698;10.078;2023-02-11T00:55:37;103056.09;;;7.44;100.00
15487;BME280;7845;53.698;10.078;2023-02-11T00:58:02;103049.16;;;7.43;100.00
15487;BME280;7845;53.698;10.078;2023-02-11T01:00:27;103050.78;;;7.41;100.00
15487;BME280;7845;53.698;10.078;2023-02-11T01:02:54;103058.97;;;7.50;100.00
15487;BME280;7845;53.698;10.078;2023-02-11T01:05:20;103062.44;;;7.50;100.00
15487;BME280;7845;53.698;10.078;2023-02-11T01:07:47;103072.72;;;7.47;100.00
15487;BME280;7845;53.698;10.078;2023-02-11T01:10:13;103071.81;;;7.47;100.00
15487;BME280;7845;53.698;10.078;2023-02-11T01:12:39;103074.63;;;7.51;100.00
15487;BME280;7845;53.698;10.078;2023-02-11T01:15:06;103076.34;;;7.51;100.00
15487;BME280;7845;53.698;10.078;2023-02-11T01:17:33;103077.91;;;7.47;100.00
15487;BME280;7845;53.698;10.078;2023-02-11T01:19:58;103077.09;;;7.48;100.00
15487;BME280;7845;53.698;10.078;2023-02-11T01:22:25;103081.34;;;7.46;100.00
15487;BME280;7845;53.698;10.078;2023-02-11T01:24:51;103080.72;;;7.52;100.00
15487;BME280;7845;53.698;10.078;2023-02-11T01:27:16;103078.94;;;7.51;100.00
15487;BME280;7845;53.698;10.078;2023-02-11T01:29:43;103077.22;;;7.51;100.00
15487;BME280;7845;53.698;10.078;2023-02-11T01:32:08;103083.50;;;7.56;100.00
15487;BME280;7845;53.698;10.078;2023-02-11T01:34:33;103091.28;;;7.56;100.00
15487;BME280;7845;53.698;10.078;2023-02-11T01:36:59;103095.47;;;7.53;100.00
15487;BME280;7845;53.698;10.078;2023-02-11T01:39:25;103092.00;;;7.52;100.00
15487;BME280;7845;53.698;10.078;2023-02-11T01:41:52;103096.50;;;7.56;100.00
15487;BME280;7845;53.698;10.078;2023-02-11T01:44:27;103099.81;;;7.52;100.00
15487;BME280;7845;53.698;10.078;2023-02-11T01:46:54;103097.13;;;7.51;100.00
15487;BME280;7845;53.698;10.078;2023-02-11T01:49:29;103104.28;;;7.56;100.00
15487;BME280;7845;53.698;10.078;2023-02-11T01:51:57;103097.59;;;7.61;100.00
15487;BME280;7845;53.698;10.078;2023-02-11T01:54:25;103108.53;;;7.54;100.00
15487;BME280;7845;53.698;10.078;2023-02-11T01:57:14;103094.09;;;7.61;100.00
15487;BME280;7845;53.698;10.078;2023-02-11T01:59:53;103100.06;;;7.58;100.00
15487;BME280;7845;53.698;10.078;2023-02-11T02:02:47;103104.25;;;7.55;100.00
15487;BME280;7845;53.698;10.078;2023-02-11T02:08:10;103109.59;;;7.59;100.00
15487;BME280;7845;53.698;10.078;2023-02-11T02:10:43;103115.53;;;7.55;100.00
15487;BME280;7845;53.698;10.078;2023-02-11T02:13:10;103107.00;;;7.59;100.00
15487;BME280;7845;53.698;10.078;2023-02-11T02:15:36;103109.59;;;7.59;100.00
15487;BME280;7845;53.698;10.078;2023-02-11T02:26:52;103100.56;;;7.70;100.00
15487;BME280;7845;53.698;10.078;2023-02-11T02:34:52;103087.50;;;7.69;100.00
15487;BME280;7845;53.698;10.078;2023-02-11T02:40:12;103091.13;;;7.72;100.00
15487;BME280;7845;53.698;10.078;2023-02-11T02:42:41;103087.75;;;7.75;100.00
15487;BME280;7845;53.698;10.078;2023-02-11T02:45:10;103081.47;;;7.70;100.00
15487;BME280;7845;53.698;10.078;2023-02-11T02:47:54;103088.69;;;7.77;100.00
15487;BME280;7845;53.698;10.078;2023-02-11T02:50:24;103099.97;;;7.77;100.00
15487;BME280;7845;53.698;10.078;2023-02-11T02:55:48;103096.34;;;7.74;100.00
15487;BME280;7845;53.698;10.078;2023-02-11T02:58:45;103090.34;;;7.75;100.00
15487;BME280;7845;53.698;10.078;2023-02-11T03:07:22;103083.09;;;7.89;100.00
15487;BME280;7845;53.698;10.078;2023-02-11T03:10:10;103074.47;;;7.90;100.00
15487;BME280;7845;53.698;10.078;2023-02-11T03:12:38;103076.19;;;7.89;100.00
15487;BME280;7845;53.698;10.078;2023-02-11T03:15:07;103071.19;;;7.94;100.00
15487;BME280;7845;53.698;10.078;2023-02-11T03:17:34;103069.16;;;7.87;100.00
15487;BME280;7845;53.698;10.078;2023-02-11T03:20:02;103062.38;;;7.90;100.00
15487;BME280;7845;53.698;10.078;2023-02-11T03:22:34;103052.91;;;7.92;100.00
15487;BME280;7845;53.698;10.078;2023-02-11T03:25:01;103058.34;;;7.98;100.00
15487;BME280;7845;53.698;10.078;2023-02-11T03:28:05;103051.19;;;7.93;100.00
15487;BME280;7845;53.698;10.078;2023-02-11T03:30:44;103046.25;;;7.99;100.00
15487;BME280;7845;53.698;10.078;2023-02-11T03:35:44;103026.00;;;7.92;100.00
15487;BME280;7845;53.698;10.078;2023-02-11T03:38:16;103015.00;;;7.97;100.00
15487;BME280;7845;53.698;10.078;2023-02-11T03:40:44;103018.56;;;8.01;100.00
15487;BME280;7845;53.698;10.078;2023-02-11T03:43:16;103026.22;;;7.96;100.00
15487;BME280;7845;53.698;10.078;2023-02-11T03:45:45;103018.53;;;7.99;100.00
15487;BME280;7845;53.698;10.078;2023-02-11T03:48:15;103015.22;;;8.03;100.00
15487;BME280;7845;53.698;10.078;2023-02-11T03:50:43;103009.06;;;8.01;100.00
15487;BME280;7845;53.698;10.078;2023-02-11T03:53:09;103002.97;;;8.01;100.00
15487;BME280;7845;53.698;10.078;2023-02-11T03:55:38;103016.22;;;8.07;100.00
15487;BME280;7845;53.698;10.078;2023-02-11T03:58:04;103002.97;;;8.01;100.00
15487;BME280;7845;53.698;10.078;2023-02-11T04:00:32;103002.84;;;7.98;100.00
15487;BME280;7845;53.698;10.078;2023-02-11T04:02:58;103005.69;;;8.04;100.00
15487;BME280;7845;53.698;10.078;2023-02-11T04:05:24;103006.56;;;8.04;100.00
15487;BME280;7845;53.698;10.078;2023-02-11T04:07:50;103011.78;;;8.04;100.00
15487;BME280;7845;53.698;10.078;2023-02-11T04:10:15;103019.47;;;8.01;100.00
15487;BME280;7845;53.698;10.078;2023-02-11T04:12:41;103033.59;;;8.08;100.00
15487;BME280;7845;53.698;10.078;2023-02-11T04:15:06;103022.50;;;8.12;100.00
15487;BME280;7845;53.698;10.078;2023-02-11T04:17:32;103030.22;;;8.10;100.00
15487;BME280;7845;53.698;10.078;2023-02-11T04:20:00;103025.25;;;8.16;100.00
15487;BME280;7845;53.698;10.078;2023-02-11T04:22:26;103039.03;;;8.14;100.00
15487;BME280;7845;53.698;10.078;2023-02-11T04:24:55;103028.34;;;8.06;100.00
15487;BME280;7845;53.698;10.078;2023-02-11T04:27:21;103039.69;;;8.08;100.00
15487;BME280;7845;53.698;10.078;2023-02-11T04:29:49;103036.19;;;8.08;100.00
15487;BME280;7845;53.698;10.078;2023-02-11T04:32:17;103033.84;;;8.14;100.00
15487;BME280;7845;53.698;10.078;2023-02-11T04:34:43;103042.44;;;8.13;100.00
15487;BME280;7845;53.698;10.078;2023-02-11T04:37:08;103033.19;;;8.19;100.00
15487;BME280;7845;53.698;10.078;2023-02-11T04:39:34;103039.03;;;8.14;100.00
15487;BME280;7845;53.698;10.078;2023-02-11T04:41:59;103029.75;;;8.20;100.00
15487;BME280;7845;53.698;10.078;2023-02-11T04:44:25;103029.81;;;8.22;100.00
15487;BME280;7845;53.698;10.078;2023-02-11T04:46:50;103023.00;;;8.25;100.00
15487;BME280;7845;53.698;10.078;2023-02-11T04:49:18;103031.63;;;8.24;100.00
15487;BME280;7845;53.698;10.078;2023-02-11T04:51:48;103025.22;;;8.15;100.00
15487;BME280;7845;53.698;10.078;2023-02-11T04:54:14;103028.78;;;8.18;100.00
15487;BME280;7845;53.698;10.078;2023-02-11T04:56:39;103028.22;;;8.25;100.00
15487;BME280;7845;53.698;10.078;2023-02-11T04:59:05;103021.22;;;8.24;100.00
15487;BME280;7845;53.698;10.078;2023-02-11T05:01:31;103037.69;;;8.23;100.00
15487;BME280;7845;53.698;10.078;2023-02-11T05:03:57;103031.59;;;8.23;100.00
15487;BME280;7845;53.698;10.078;2023-02-11T05:06:22;103035.91;;;8.22;100.00
15487;BME280;7845;53.698;10.078;2023-02-11T05:08:48;103033.38;;;8.24;100.00
15487;BME280;7845;53.698;10.078;2023-02-11T05:11:15;103034.56;;;8.32;100.00
15487;BME280;7845;53.698;10.078;2023-02-11T05:13:42;103043.00;;;8.26;100.00
15487;BME280;7845;53.698;10.078;2023-02-11T05:16:08;103041.44;;;8.30;100.00
15487;BME280;7845;53.698;10.078;2023-02-11T05:18:33;103032.50;;;8.25;100.00
15487;BME280;7845;53.698;10.078;2023-02-11T05:21:05;103016.16;;;8.27;100.00
15487;BME280;7845;53.698;10.078;2023-02-11T05:23:30;103013.69;;;8.30;100.00
15487;BME280;7845;53.698;10.078;2023-02-11T05:25:59;103006.84;;;8.32;100.00
15487;BME280;7845;53.698;10.078;2023-02-11T05:28:26;102995.53;;;8.32;100.00
15487;BME280;7845;53.698;10.078;2023-02-11T05:30:51;102996.09;;;8.25;100.00
15487;BME280;7845;53.698;10.078;2023-02-11T05:33:16;102998.97;;;8.31;100.00
15487;BME280;7845;53.698;10.078;2023-02-11T05:35:42;102986.72;;;8.28;100.00
15487;BME280;7845;53.698;10.078;2023-02-11T05:38:07;102985.13;;;8.32;100.00
15487;BME280;7845;53.698;10.078;2023-02-11T05:40:32;102967.06;;;8.37;100.00
15487;BME280;7845;53.698;10.078;2023-02-11T05:42:58;102963.31;;;8.28;100.00
15487;BME280;7845;53.698;10.078;2023-02-11T05:45:23;102960.94;;;8.34;100.00
15487;BME280;7845;53.698;10.078;2023-02-11T05:47:48;102958.53;;;8.39;100.00
15487;BME280;7845;53.698;10.078;2023-02-11T05:50:14;102966.91;;;8.32;100.00
15487;BME280;7845;53.698;10.078;2023-02-11T05:52:39;102973.16;;;8.37;100.00
15487;BME280;7845;53.698;10.078;2023-02-11T05:55:05;102963.53;;;8.34;100.00
15487;BME280;7845;53.698;10.078;2023-02-11T05:57:30;102964.47;;;8.37;100.00
15487;BME280;7845;53.698;10.078;2023-02-11T05:59:55;102957.53;;;8.36;100.00
15487;BME280;7845;53.698;10.078;2023-02-11T06:02:21;102951.44;;;8.35;100.00
15487;BME280;7845;53.698;10.078;2023-02-11T06:04:46;102949.94;;;8.42;100.00
15487;BME280;7845;53.698;10.078;2023-02-11T06:07:13;102935.75;;;8.33;100.00
15487;BME280;7845;53.698;10.078;2023-02-11T06:09:38;102933.44;;;8.41;100.00
15487;BME280;7845;53.698;10.078;2023-02-11T06:12:04;102932.53;;;8.41;100.00
15487;BME280;7845;53.698;10.078;2023-02-11T06:14:31;102942.16;;;8.43;100.00
15487;BME280;7845;53.698;10.078;2023-02-11T06:16:57;102949.25;;;8.47;100.00
15487;BME280;7845;53.698;10.078;2023-02-11T06:19:23;102952.69;;;8.46;100.00
15487;BME280;7845;53.698;10.078;2023-02-11T06:21:48;102960.69;;;8.51;100.00
15487;BME280;7845;53.698;10.078;2023-02-11T06:24:14;102962.38;;;8.50;100.00
15487;BME280;7845;53.698;10.078;2023-02-11T06:26:39;102962.19;;;8.46;100.00
15487;BME280;7845;53.698;10.078;2023-02-11T06:29:04;102969.44;;;8.54;100.00
15487;BME280;7845;53.698;10.078;2023-02-11T06:31:30;102974.53;;;8.51;100.00
15487;BME280;7845;53.698;10.078;2023-02-11T06:33:55;102973.81;;;8.54;100.00
15487;BME280;7845;53.698;10.078;2023-02-11T06:36:21;102974.75;;;8.57;100.00
15487;BME280;7845;53.698;10.078;2023-02-11T06:38:47;102974.63;;;8.53;100.00
15487;BME280;7845;53.698;10.078;2023-02-11T06:41:15;102964.47;;;8.60;100.00
15487;BME280;7845;53.698;10.078;2023-02-11T06:43:42;102959.38;;;8.63;100.00
15487;BME280;7845;53.698;10.078;2023-02-11T06:46:07;102961.72;;;8.56;100.00
15487;BME280;7845;53.698;10.078;2023-02-11T06:48:33;102969.03;;;8.66;100.00
15487;BME280;7845;53.698;10.078;2023-02-11T06:51:03;102965.22;;;8.56;100.00
15487;BME280;7845;53.698;10.078;2023-02-11T06:53:33;102968.19;;;8.67;100.00
15487;BME280;7845;53.698;10.078;2023-02-11T06:56:04;102963.88;;;8.67;100.00
15487;BME280;7845;53.698;10.078;2023-02-11T06:58:30;102969.75;;;8.62;100.00
15487;BME280;7845;53.698;10.078;2023-02-11T07:00:55;102973.34;;;8.65;100.00
15487;BME280;7845;53.698;10.078;2023-02-11T07:03:21;102978.44;;;8.62;100.00
15487;BME280;7845;53.698;10.078;2023-02-11T07:05:46;102973.25;;;8.62;100.00
15487;BME280;7845;53.698;10.078;2023-02-11T07:08:12;102974.28;;;8.67;100.00
15487;BME280;7845;53.698;10.078;2023-02-11T07:10:37;102974.28;;;8.67;100.00
15487;BME280;7845;53.698;10.078;2023-02-11T07:13:03;102988.09;;;8.66;100.00
15487;BME280;7845;53.698;10.078;2023-02-11T07:15:29;102976.94;;;8.69;100.00
15487;BME280;7845;53.698;10.078;2023-02-11T07:17:54;102970.84;;;8.68;100.00
15487;BME280;7845;53.698;10.078;2023-02-11T07:20:19;102958.09;;;8.76;100.00
15487;BME280;7845;53.698;10.078;2023-02-11T07:22:45;102963.03;;;8.68;100.00
15487;BME280;7845;53.698;10.078;2023-02-11T07:25:10;102950.03;;;8.68;100.00
15487;BME280;7845;53.698;10.078;2023-02-11T07:27:35;102952.16;;;8.80;100.00
15487;BME280;7845;53.698;10.078;2023-02-11T07:30:01;102951.06;;;8.73;100.00
15487;BME280;7845;53.698;10.078;2023-02-11T07:32:26;102952.72;;;8.71;100.00
15487;BME280;7845;53.698;10.078;2023-02-11T07:34:51;102958.84;;;8.72;100.00
15487;BME280;7845;53.698;10.078;2023-02-11T07:37:17;102956.94;;;8.68;100.00
15487;BME280;7845;53.698;10.078;2023-02-11T07:39:44;102970.06;;;8.71;100.00
15487;BME280;7845;53.698;10.078;2023-02-11T07:42:09;102974.50;;;8.73;100.00
15487;BME280;7845;53.698;10.078;2023-02-11T07:44:36;102990.41;;;8.81;100.00
15487;BME280;7845;53.698;10.078;2023-02-11T07:47:02;102998.09;;;8.78;100.00
15487;BME280;7845;53.698;10.078;2023-02-11T07:49:28;102994.84;;;8.85;100.00
15487;BME280;7845;53.698;10.078;2023-02-11T07:51:53;103000.91;;;8.84;100.00
15487;BME280;7845;53.698;10.078;2023-02-11T07:54:18;103008.09;;;8.91;100.00
15487;BME280;7845;53.698;10.078;2023-02-11T07:56:44;102990.69;;;8.90;100.00
15487;BME280;7845;53.698;10.078;2023-02-11T07:59:10;102998.34;;;8.85;100.00
15487;BME280;7845;53.698;10.078;2023-02-11T08:01:35;102993.19;;;8.87;100.00
15487;BME280;7845;53.698;10.078;2023-02-11T08:04:02;103003.88;;;8.95;100.00
15487;BME280;7845;53.698;10.078;2023-02-11T08:06:30;103003.09;;;8.97;100.00
15487;BME280;7845;53.698;10.078;2023-02-11T08:08:56;103011.09;;;9.02;100.00
15487;BME280;7845;53.698;10.078;2023-02-11T08:11:26;103009.97;;;8.95;100.00
15487;BME280;7845;53.698;10.078;2023-02-11T08:13:53;103010.66;;;8.89;100.00
15487;BME280;7845;53.698;10.078;2023-02-11T08:18:43;103013.47;;;8.96;100.00
15487;BME280;7845;53.698;10.078;2023-02-11T08:21:09;103013.59;;;8.99;100.00
15487;BME280;7845;53.698;10.078;2023-02-11T08:23:36;103017.34;;;9.07;100.00
15487;BME280;7845;53.698;10.078;2023-02-11T08:26:08;103030.19;;;9.02;100.00
15487;BME280;7845;53.698;10.078;2023-02-11T08:28:35;103035.06;;;9.17;100.00
15487;BME280;7845;53.698;10.078;2023-02-11T08:31:14;103029.53;;;9.08;100.00
15487;BME280;7845;53.698;10.078;2023-02-11T08:33:40;103039.88;;;9.06;100.00
15487;BME280;7845;53.698;10.078;2023-02-11T08:36:33;103037.50;;;9.12;100.00
15487;BME280;7845;53.698;10.078;2023-02-11T08:39:01;103043.53;;;9.11;100.00
15487;BME280;7845;53.698;10.078;2023-02-11T08:41:30;103049.63;;;9.12;100.00
15487;BME280;7845;53.698;10.078;2023-02-11T08:43:56;103045.66;;;9.23;100.00
15487;BME280;7845;53.698;10.078;2023-02-11T08:46:22;103040.31;;;9.18;100.00
15487;BME280;7845;53.698;10.078;2023-02-11T08:48:47;103043.81;;;9.19;100.00
15487;BME280;7845;53.698;10.078;2023-02-11T08:51:16;103036.25;;;9.26;100.00
15487;BME280;7845;53.698;10.078;2023-02-11T08:53:43;103042.34;;;9.27;100.00
15487;BME280;7845;53.698;10.078;2023-02-11T08:56:09;103043.16;;;9.26;100.00
15487;BME280;7845;53.698;10.078;2023-02-11T08:58:35;103043.22;;;9.27;100.00
15487;BME280;7845;53.698;10.078;2023-02-11T09:01:00;103038.84;;;9.26;100.00
15487;BME280;7845;53.698;10.078;2023-02-11T09:03:26;103039.50;;;9.19;100.00
15487;BME280;7845;53.698;10.078;2023-02-11T09:05:52;103047.13;;;9.15;100.00
15487;BME280;7845;53.698;10.078;2023-02-11T09:08:18;103038.38;;;9.13;100.00
15487;BME280;7845;53.698;10.078;2023-02-11T09:10:44;103027.38;;;9.21;100.00
15487;BME280;7845;53.698;10.078;2023-02-11T09:13:09;103028.97;;;9.16;100.00
15487;BME280;7845;53.698;10.078;2023-02-11T09:15:35;103030.19;;;9.27;100.00
15487;BME280;7845;53.698;10.078;2023-02-11T09:18:01;103032.81;;;9.27;100.00
15487;BME280;7845;53.698;10.078;2023-02-11T09:20:28;103038.91;;;9.28;100.00
15487;BME280;7845;53.698;10.078;2023-02-11T09:22:55;103033.72;;;9.29;100.00
15487;BME280;7845;53.698;10.078;2023-02-11T09:25:22;103037.19;;;9.28;100.00
15487;BME280;7845;53.698;10.078;2023-02-11T09:27:48;103062.72;;;9.38;100.00
15487;BME280;7845;53.698;10.078;2023-02-11T09:30:14;103054.75;;;9.34;100.00
15487;BME280;7845;53.698;10.078;2023-02-11T09:32:39;103063.72;;;9.42;100.00
15487;BME280;7845;53.698;10.078;2023-02-11T09:35:05;103058.59;;;9.45;100.00
15487;BME280;7845;53.698;10.078;2023-02-11T09:37:30;103052.50;;;9.44;100.00
15487;BME280;7845;53.698;10.078;2023-02-11T09:39:55;103050.84;;;9.47;100.00
15487;BME280;7845;53.698;10.078;2023-02-11T09:45:12;103046.34;;;9.42;100.00
15487;BME280;7845;53.698;10.078;2023-02-11T09:47:46;103054.41;;;9.50;100.00
15487;BME280;7845;53.698;10.078;2023-02-11T09:50:15;103058.00;;;9.54;100.00
15487;BME280;7845;53.698;10.078;2023-02-11T09:52:54;103064.22;;;9.57;100.00
15487;BME280;7845;53.698;10.078;2023-02-11T09:55:49;103054.81;;;9.62;100.00
15487;BME280;7845;53.698;10.078;2023-02-11T09:58:19;103062.91;;;9.70;100.00
15487;BME280;7845;53.698;10.078;2023-02-11T10:06:16;103064.22;;;9.57;100.00
15487;BME280;7845;53.698;10.078;2023-02-11T10:09:00;103069.44;;;9.57;100.00
15487;BME280;7845;53.698;10.078;2023-02-11T10:17:01;103077.56;;;9.66;100.00
15487;BME280;7845;53.698;10.078;2023-02-11T10:19:49;103064.94;;;9.78;100.00
15487;BME280;7845;53.698;10.078;2023-02-11T10:22:28;103059.53;;;9.74;100.00
15487;BME280;7845;53.698;10.078;2023-02-11T10:24:57;103070.38;;;9.86;100.00
15487;BME280;7845;53.698;10.078;2023-02-11T10:27:30;103074.47;;;9.78;100.00
15487;BME280;7845;53.698;10.078;2023-02-11T10:30:45;103079.66;;;9.76;100.00
15487;BME280;7845;53.698;10.078;2023-02-11T10:32:53;103072.22;;;9.88;100.00
15487;BME280;7845;53.698;10.078;2023-02-11T10:35:21;103068.56;;;9.83;100.00
15487;BME280;7845;53.698;10.078;2023-02-11T10:37:48;103061.78;;;9.88;100.00
15487;BME280;7845;53.698;10.078;2023-02-11T10:40:22;103041.84;;;9.90;100.00
15487;BME280;7845;53.698;10.078;2023-02-11T10:42:51;103045.44;;;9.94;100.00
15487;BME280;7845;53.698;10.078;2023-02-11T10:45:26;103040.13;;;9.91;100.00
15487;BME280;7845;53.698;10.078;2023-02-11T10:47:54;103039.38;;;9.95;100.00
15487;BME280;7845;53.698;10.078;2023-02-11T10:50:25;103042.97;;;9.98;100.00
15487;BME280;7845;53.698;10.078;2023-02-11T10:52:51;103046.66;;;10.05;100.00
15487;BME280;7845;53.698;10.078;2023-02-11T10:55:19;103045.75;;;10.05;100.00
15487;BME280;7845;53.698;10.078;2023-02-11T10:57:58;103032.97;;;10.12;100.00
15487;BME280;7845;53.698;10.078;2023-02-11T11:00:41;103032.97;;;10.12;100.00
15487;BME280;7845;53.698;10.078;2023-02-11T11:03:35;103026.28;;;10.20;100.00
15487;BME280;7845;53.698;10.078;2023-02-11T11:06:05;103034.59;;;10.09;100.00
15487;BME280;7845;53.698;10.078;2023-02-11T11:08:49;103028.69;;;10.14;100.00
15487;BME280;7845;53.698;10.078;2023-02-11T11:11:20;103034.25;;;9.98;100.00
15487;BME280;7845;53.698;10.078;2023-02-11T11:18:52;103060.44;;;10.01;100.00
15487;BME280;7845;53.698;10.078;2023-02-11T11:21:25;103061.41;;;10.05;100.00
15487;BME280;7845;53.698;10.078;2023-02-11T11:23:58;103056.94;;;10.00;100.00
15487;BME280;7845;53.698;10.078;2023-02-11T11:26:37;103055.41;;;10.07;100.00
15487;BME280;7845;53.698;10.078;2023-02-11T11:29:12;103046.00;;;10.12;100.00
15487;BME280;7845;53.698;10.078;2023-02-11T11:31:53;103046.00;;;10.12;100.00
15487;BME280;7845;53.698;10.078;2023-02-11T11:34:30;103046.78;;;10.10;100.00
15487;BME280;7845;53.698;10.078;2023-02-11T11:36:57;103053.66;;;10.06;100.00
15487;BME280;7845;53.698;10.078;2023-02-11T11:39:31;103065.09;;;10.11;100.00
15487;BME280;7845;53.698;10.078;2023-02-11T11:41:59;103061.38;;;10.03;100.00
15487;BME280;7845;53.698;10.078;2023-02-11T11:44:29;103088.34;;;10.03;100.00
15487;BME280;7845;53.698;10.078;2023-02-11T11:55:10;103103.03;;;10.00;100.00
15487;BME280;7845;53.698;10.078;2023-02-11T11:57:38;103090.09;;;10.03;100.00
15487;BME280;7845;53.698;10.078;2023-02-11T12:00:05;103087.03;;;10.16;100.00
15487;BME280;7845;53.698;10.078;2023-02-11T12:03:17;103088.59;;;10.11;100.00
15487;BME280;7845;53.698;10.078;2023-02-11T12:05:55;103090.53;;;10.17;100.00
15487;BME280;7845;53.698;10.078;2023-02-11T12:11:17;103106.28;;;10.20;100.00
15487;BME280;7845;53.698;10.078;2023-02-11T12:16:47;103104.19;;;10.10;100.00
15487;BME280;7845;53.698;10.078;2023-02-11T12:22:37;103090.78;;;10.24;100.00
15487;BME280;7845;53.698;10.078;2023-02-11T12:25:17;103088.81;;;10.17;100.00
15487;BME280;7845;53.698;10.078;2023-02-11T12:27:57;103082.53;;;10.12;100.00
15487;BME280;7845;53.698;10.078;2023-02-11T12:33:19;103083.91;;;10.28;100.00
15487;BME280;7845;53.698;10.078;2023-02-11T12:36:01;103076.78;;;10.22;100.00
15487;BME280;7845;53.698;10.078;2023-02-11T12:38:45;103079.56;;;10.27;100.00
15487;BME280;7845;53.698;10.078;2023-02-11T12:44:39;103083.41;;;10.39;100.00
15487;BME280;7845;53.698;10.078;2023-02-11T12:52:40;103092.31;;;10.46;100.00
15487;BME280;7845;53.698;10.078;2023-02-11T12:55:19;103100.91;;;10.42;100.00
15487;BME280;7845;53.698;10.078;2023-02-11T12:57:47;103105.31;;;10.44;100.00
15487;BME280;7845;53.698;10.078;2023-02-11T13:00:19;103105.34;;;10.46;100.00
15487;BME280;7845;53.698;10.078;2023-02-11T13:03:29;103097.91;;;10.30;100.00
15487;BME280;7845;53.698;10.078;2023-02-11T13:06:06;103103.06;;;10.28;100.00
15487;BME280;7845;53.698;10.078;2023-02-11T13:08:41;103107.50;;;10.31;100.00
15487;BME280;7845;53.698;10.078;2023-02-11T13:11:17;103108.28;;;10.28;100.00
15487;BME280;7845;53.698;10.078;2023-02-11T13:16:23;103096.75;;;10.20;100.00
15487;BME280;7845;53.698;10.078;2023-02-11T13:21:37;103089.81;;;10.21;100.00
15487;BME280;7845;53.698;10.078;2023-02-11T13:24:25;103076.56;;;10.15;100.00
15487;BME280;7845;53.698;10.078;2023-02-11T13:27:07;103082.00;;;10.22;100.00
15487;BME280;7845;53.698;10.078;2023-02-11T13:29:41;103093.63;;;10.32;100.00
15487;BME280;7845;53.698;10.078;2023-02-11T13:32:22;103090.81;;;10.26;100.00
15487;BME280;7845;53.698;10.078;2023-02-11T13:37:21;103085.50;;;10.23;100.00
15487;BME280;7845;53.698;10.078;2023-02-11T13:39:55;103084.72;;;10.25;100.00
15487;BME280;7845;53.698;10.078;2023-02-11T13:42:21;103082.72;;;10.17;100.00
15487;BME280;7845;53.698;10.078;2023-02-11T13:44:47;103093.41;;;10.24;100.00
15487;BME280;7845;53.698;10.078;2023-02-11T13:47:33;103093.59;;;10.30;100.00
15487;BME280;7845;53.698;10.078;2023-02-11T13:50:02;103107.31;;;10.25;100.00
15487;BME280;7845;53.698;10.078;2023-02-11T13:52:36;103111.78;;;10.29;100.00
15487;BME280;7845;53.698;10.078;2023-02-11T13:55:13;103107.22;;;10.22;100.00
15487;BME280;7845;53.698;10.078;2023-02-11T13:57:44;103120.13;;;10.17;100.00
15487;BME280;7845;53.698;10.078;2023-02-11T14:09:06;103129.38;;;10.34;100.00
15487;BME280;7845;53.698;10.078;2023-02-11T14:14:16;103136.81;;;10.22;100.00
15487;BME280;7845;53.698;10.078;2023-02-11T14:19:34;103139.50;;;10.24;100.00
15487;BME280;7845;53.698;10.078;2023-02-11T14:24:44;103135.88;;;10.20;100.00
15487;BME280;7845;53.698;10.078;2023-02-11T14:30:47;103134.66;;;10.11;100.00
15487;BME280;7845;53.698;10.078;2023-02-11T14:36:44;103152.25;;;10.15;100.00
15487;BME280;7845;53.698;10.078;2023-02-11T14:39:01;103154.84;;;10.15;100.00
15487;BME280;7845;53.698;10.078;2023-02-11T14:41:39;103162.78;;;10.18;100.00
15487;BME280;7845;53.698;10.078;2023-02-11T14:44:13;103179.91;;;10.11;100.00
15487;BME280;7845;53.698;10.078;2023-02-11T14:46:45;103180.09;;;10.16;100.00
15487;BME280;7845;53.698;10.078;2023-02-11T14:49:20;103191.31;;;10.13;100.00
15487;BME280;7845;53.698;10.078;2023-02-11T14:51:49;103201.69;;;10.12;100.00
15487;BME280;7845;53.698;10.078;2023-02-11T14:54:18;103216.25;;;10.05;100.00
15487;BME280;7845;53.698;10.078;2023-02-11T14:57:04;103208.41;;;10.05;100.00